Mistral — TCCH — position and weather

sailwx.info

Track history (hours):
 
Tides and Currents Weather Stations Pressure Air Temp Water Temp Dewpoint Dewpoint Depression Visibility Wind Speed Wind Dir Waves Ship Positions

Mistral

Last reported at 2014-Aug-26 11:10 UTC. Time now 2014-Aug-27 13:11 UTC.
Position N 40°44' E 029°30'.

Length 130 m; draft 5.9 m.

Type: Ship. MMSI: 271000615.

Date/timePositionNaut miles runAvg speedWind from/ knotsBaromVisibWave heightAir tempDewpointWater temp
2014-Aug-26 11:10N 40°44' E 029°30'0 0.0
2014-Aug-25 23:13N 40°44' E 029°30'0 0.0
2014-Aug-25 18:31N 40°44' E 029°30'0 0.0
2014-Aug-24 15:19N 40°44' E 029°30'0 0.0
2014-Aug-24 13:19N 40°44' E 029°30'0 0.0
2014-Aug-24 08:24N 40°44' E 029°30'2 1.6
2014-Aug-24 07:25N 40°45' E 029°31'  
2014-Aug-21 20:06N 40°44' E 029°44'12 7.1
2014-Aug-21 18:28N 40°45' E 029°29'7 7.2
2014-Aug-21 17:32N 40°44' E 029°20'7 6.9
2014-Aug-21 16:33N 40°43' E 029°11'7 6.6
2014-Aug-21 15:33N 40°42' E 029°02'6 6.0
2014-Aug-21 14:33N 40°43' E 028°55'6 6.0
2014-Aug-21 13:33N 40°44' E 028°47'7 6.6
2014-Aug-21 12:33N 40°44' E 028°38'84 6.4
2014-Aug-20 23:22N 40°27' E 026°50'7 5.9
2014-Aug-20 22:08N 40°24' E 026°42'53 5.0
2014-Aug-20 11:31N 39°47' E 025°51'13 5.2
2014-Aug-20 09:06N 39°35' E 025°44'9 5.6
2014-Aug-20 07:28N 39°27' E 025°39'5 6.0
2014-Aug-20 06:33N 39°22' E 025°36'6 6.0
2014-Aug-20 05:33N 39°17' E 025°32'7 5.6
2014-Aug-20 04:22N 39°12' E 025°27'5 5.6
2014-Aug-20 03:33N 39°07' E 025°25'12 5.7
2014-Aug-20 01:28N 38°57' E 025°18'12 5.6
2014-Aug-19 23:15N 38°46' E 025°10'91 4.0
2014-Aug-19 00:30N 37°25' E 024°18'  
Track history (hours):
 
Tides and Currents Weather Stations Pressure Air Temp Water Temp Dewpoint Dewpoint Depression Visibility Wind Speed Wind Dir Waves Ship Positions

Mistral

Last reported at 2014-Aug-26 11:10 UTC. Time now 2014-Aug-27 13:11 UTC.
Position N 40°44' E 029°30'.

Length 130 m; draft 5.9 m.

Type: Ship. MMSI: 271000615.

Date/timePositionNaut miles runAvg speedWind from/ knotsBaromVisibWave heightAir tempDewpointWater temp
2014-Aug-26 11:10N 40°44' E 029°30'0 0.0
2014-Aug-25 23:13N 40°44' E 029°30'0 0.0
2014-Aug-25 18:31N 40°44' E 029°30'0 0.0
2014-Aug-24 15:19N 40°44' E 029°30'0 0.0
2014-Aug-24 13:19N 40°44' E 029°30'0 0.0
2014-Aug-24 08:24N 40°44' E 029°30'2 1.6
2014-Aug-24 07:25N 40°45' E 029°31'  
2014-Aug-21 20:06N 40°44' E 029°44'12 7.1
2014-Aug-21 18:28N 40°45' E 029°29'7 7.2
2014-Aug-21 17:32N 40°44' E 029°20'7 6.9
2014-Aug-21 16:33N 40°43' E 029°11'7 6.6
2014-Aug-21 15:33N 40°42' E 029°02'6 6.0
2014-Aug-21 14:33N 40°43' E 028°55'6 6.0
2014-Aug-21 13:33N 40°44' E 028°47'7 6.6
2014-Aug-21 12:33N 40°44' E 028°38'84 6.4
2014-Aug-20 23:22N 40°27' E 026°50'7 5.9
2014-Aug-20 22:08N 40°24' E 026°42'53 5.0
2014-Aug-20 11:31N 39°47' E 025°51'13 5.2
2014-Aug-20 09:06N 39°35' E 025°44'9 5.6
2014-Aug-20 07:28N 39°27' E 025°39'5 6.0
2014-Aug-20 06:33N 39°22' E 025°36'6 6.0
2014-Aug-20 05:33N 39°17' E 025°32'7 5.6
2014-Aug-20 04:22N 39°12' E 025°27'5 5.6
2014-Aug-20 03:33N 39°07' E 025°25'12 5.7
2014-Aug-20 01:28N 38°57' E 025°18'12 5.6
2014-Aug-19 23:15N 38°46' E 025°10'91 4.0
2014-Aug-19 00:30N 37°25' E 024°18'  

Dump ship's entire track history